EmailTwitter


Surface observations / United Kingdom / EGUB (03658)

Regions: Quebec | Canada | USA | Europe | France | UK | Elsewhere
Station
Display
Info & Location for EGUB (03658) | Help decoding METAR

Weather Conditions observed on 2019/05/21 at 09:50 UTC at BENSON RAF, UK (EGUB)

Sky conditions: few clouds.

Temperature: 16.0 Celsius.

Dewpoint: 7.0 Celsius.

Relative Humidity: 55%

Winds: Northwest at 13 km/h or 7 knots.

Mean Sea level Pressure: 101.90 kilopascals.

Horizontal visibility: 6.21 statute miles or 9.94 kilometers.

Coded METAR:

EGUB 210950Z 33007KT 9999 FEW033 16/07 Q1019 BLU NOSIG=